Time;durP1;ratioP1;P1;durP2;ratioP2;P2;SDS_P1;SDS_P2;PMS_P1;PMS_P2;Temp;Humidity;BMP_temperature;BMP_pressure;BME280_temperature;BME280_humidity;BME280_pressure;Samples;Min_cycle;Max_cycle;Signal;HPM_P1;HPM_P2
2022/11/18 00:03:03;;;;;;;28.77;16.23;;;;;;;;;;10502625;28;20023;-72
2022/11/18 00:08:04;;;;;;;26.98;15.23;;;;;;;;;;10470446;28;20021;-75
2022/11/18 00:18:23;;;;;;;31.80;17.08;;;;;;;;;;10497197;28;20487;-80
2022/11/18 00:23:23;;;;;;;29.42;15.57;;;;;;;;;;10481969;28;20135;-75
2022/11/18 00:28:23;;;;;;;33.65;17.02;;;;;;;;;;10480929;28;20128;-75
2022/11/18 00:33:23;;;;;;;35.05;17.83;;;;;;;;;;10496355;28;20074;-72
2022/11/18 00:38:24;;;;;;;36.30;18.63;;;;;;;;;;10499198;28;20026;-75
2022/11/18 00:43:24;;;;;;;28.73;14.65;;;;;;;;;;10468848;28;20040;-81
2022/11/18 00:48:25;;;;;;;32.10;18.08;;;;;;;;;;10478085;28;20078;-79
2022/11/18 00:53:25;;;;;;;30.17;16.08;;;;;;;;;;10493457;28;20458;-74
2022/11/18 00:58:26;;;;;;;28.20;14.53;;;;;;;;;;10474514;28;20484;-78
2022/11/18 01:03:26;;;;;;;28.30;16.58;;;;;;;;;;10491446;28;20291;-75
2022/11/18 01:08:27;;;;;;;29.00;15.52;;;;;;;;;;10474105;28;20017;-75
2022/11/18 01:13:28;;;;;;;32.67;16.88;;;;;;;;;;10473985;28;20039;-75
2022/11/18 01:18:29;;;;;;;30.25;17.38;;;;;;;;;;10472738;28;20020;-73
2022/11/18 01:23:29;;;;;;;32.88;17.50;;;;;;;;;;10472169;28;20051;-74
2022/11/18 01:28:30;;;;;;;35.40;17.95;;;;;;;;;;10490710;28;20025;-74
2022/11/18 01:33:30;;;;;;;37.70;17.27;;;;;;;;;;10480054;28;20025;-76
2022/11/18 01:38:30;;;;;;;34.38;16.25;;;;;;;;;;10457040;28;20416;-74
2022/11/18 01:43:47;;;;;;;34.42;16.80;;;;;;;;;;10489955;28;20111;-75
2022/11/18 01:48:52;;;;;;;35.53;17.38;;;;;;;;;;10471289;28;20029;-73
2022/11/18 01:53:59;;;;;;;32.97;18.15;;;;;;;;;;10472690;28;20021;-75
2022/11/18 01:59:12;;;;;;;39.88;18.15;;;;;;;;;;10490927;28;20024;-72
2022/11/18 02:04:12;;;;;;;36.83;18.85;;;;;;;;;;10471311;28;20021;-74
2022/11/18 02:09:16;;;;;;;35.28;18.27;;;;;;;;;;10454848;28;20016;-75
2022/11/18 02:14:18;;;;;;;40.92;18.67;;;;;;;;;;10486337;28;20024;-72
2022/11/18 02:19:38;;;;;;;41.05;19.45;;;;;;;;;;10501553;28;20046;-75
2022/11/18 02:24:38;;;;;;;43.45;19.23;;;;;;;;;;10497289;28;20048;-73
2022/11/18 02:30:02;;;;;;;38.15;20.52;;;;;;;;;;10509137;28;20063;-72
2022/11/18 02:35:12;;;;;;;46.38;22.30;;;;;;;;;;10463560;28;20412;-72
2022/11/18 02:40:19;;;;;;;43.85;21.90;;;;;;;;;;10469658;28;20044;-74
2022/11/18 02:45:20;;;;;;;45.35;22.77;;;;;;;;;;10470087;28;20012;-74
2022/11/18 02:50:23;;;;;;;51.88;22.50;;;;;;;;;;10470600;28;20099;-75
2022/11/18 02:55:24;;;;;;;48.70;23.50;;;;;;;;;;10470022;28;20024;-75
2022/11/18 03:00:25;;;;;;;49.17;22.58;;;;;;;;;;10488026;28;20445;-75
2022/11/18 03:05:25;;;;;;;76.28;24.55;;;;;;;;;;10469951;28;20017;-75
2022/11/18 03:10:31;;;;;;;57.13;24.90;;;;;;;;;;10469694;28;20597;-75
2022/11/18 03:15:39;;;;;;;48.92;22.92;;;;;;;;;;10487851;28;20507;-74
2022/11/18 03:20:50;;;;;;;59.03;23.38;;;;;;;;;;10469568;28;20056;-73
2022/11/18 03:26:08;;;;;;;58.70;25.52;;;;;;;;;;10469111;28;20036;-74
2022/11/18 03:31:18;;;;;;;54.00;25.17;;;;;;;;;;10469256;28;20522;-75
2022/11/18 03:36:20;;;;;;;55.35;25.08;;;;;;;;;;10487248;28;20009;-75
2022/11/18 03:41:21;;;;;;;54.97;23.95;;;;;;;;;;10468886;28;20056;-76
2022/11/18 03:46:24;;;;;;;51.63;24.40;;;;;;;;;;10468224;28;20027;-73
2022/11/18 03:51:27;;;;;;;59.38;25.08;;;;;;;;;;10476400;28;20028;-75
2022/11/18 03:56:30;;;;;;;46.10;24.80;;;;;;;;;;10473861;28;20020;-74
2022/11/18 04:01:42;;;;;;;47.22;21.98;;;;;;;;;;10467578;28;20445;-74
2022/11/18 04:06:48;;;;;;;82.03;27.63;;;;;;;;;;10493486;28;20020;-74
2022/11/18 04:12:02;;;;;;;81.88;27.65;;;;;;;;;;10477831;28;20040;-74
2022/11/18 04:17:10;;;;;;;101.78;26.67;;;;;;;;;;10477047;28;20024;-72
2022/11/18 04:22:10;;;;;;;;;;;;;;;;;;10475166;28;20072;-76
2022/11/18 04:27:12;;;;;;;147.40;28.23;;;;;;;;;;10492806;28;19944;-75
2022/11/18 04:32:12;;;;;;;229.45;29.60;;;;;;;;;;10460786;28;20044;-75
2022/11/18 04:37:12;;;;;;;119.75;24.20;;;;;;;;;;10491547;28;20036;-75
2022/11/18 04:42:13;;;;;;;174.38;29.75;;;;;;;;;;10472239;28;20107;-73
2022/11/18 04:47:13;;;;;;;165.02;26.17;;;;;;;;;;10495133;28;20024;-75
2022/11/18 04:52:14;;;;;;;154.00;24.40;;;;;;;;;;10456321;28;20021;-74
2022/11/18 04:57:14;;;;;;;246.82;28.13;;;;;;;;;;10484659;28;20031;-75
2022/11/18 05:02:14;;;;;;;177.83;28.27;;;;;;;;;;10491774;28;20023;-72
2022/11/18 05:07:16;;;;;;;215.13;25.67;;;;;;;;;;10458499;28;20032;-76
2022/11/18 05:17:35;;;;;;;116.55;25.05;;;;;;;;;;10478810;28;20450;-75
2022/11/18 05:22:35;;;;;;;85.27;25.23;;;;;;;;;;10472194;28;20041;-76
2022/11/18 05:27:37;;;;;;;108.50;26.00;;;;;;;;;;10472633;28;20028;-74
2022/11/18 05:32:37;;;;;;;111.43;25.42;;;;;;;;;;10436951;28;20028;-73
2022/11/18 05:37:37;;;;;;;100.80;23.65;;;;;;;;;;10470040;28;20454;-76
2022/11/18 05:47:59;;;;;;;61.83;22.70;;;;;;;;;;10490026;28;20083;-73
2022/11/18 05:53:00;;;;;;;66.57;24.92;;;;;;;;;;10454334;28;20029;-75
2022/11/18 05:58:00;;;;;;;103.07;25.40;;;;;;;;;;10488609;28;20036;-75
2022/11/18 06:03:02;;;;;;;74.05;25.58;;;;;;;;;;10489159;28;20031;-76
2022/11/18 06:08:02;;;;;;;84.45;24.55;;;;;;;;;;10469452;28;20020;-75
2022/11/18 06:13:05;;;;;;;81.63;23.67;;;;;;;;;;10470164;28;20024;-74
2022/11/18 06:18:09;;;;;;;141.90;24.25;;;;;;;;;;10470674;28;20047;-82
2022/11/18 06:23:09;;;;;;;81.65;28.30;;;;;;;;;;10487318;28;20080;-76
2022/11/18 06:28:11;;;;;;;78.90;25.77;;;;;;;;;;10487712;28;20082;-73
2022/11/18 06:33:11;;;;;;;142.90;27.58;;;;;;;;;;10469323;28;20044;-76
2022/11/18 06:38:12;;;;;;;150.45;23.92;;;;;;;;;;10487431;28;20039;-80
2022/11/18 06:48:32;;;;;;;208.40;21.73;;;;;;;;;;10487422;28;20040;-75
2022/11/18 06:53:34;;;;;;;222.02;21.85;;;;;;;;;;10479482;28;20078;-72
2022/11/18 06:58:34;;;;;;;204.60;24.23;;;;;;;;;;10493422;28;20471;-75
2022/11/18 07:03:34;;;;;;;226.32;20.90;;;;;;;;;;10491700;28;20025;-76
2022/11/18 07:08:36;;;;;;;155.98;22.13;;;;;;;;;;10479153;28;20027;-75
2022/11/18 07:13:36;;;;;;;149.02;21.83;;;;;;;;;;10487422;28;20021;-74
2022/11/18 07:18:37;;;;;;;81.15;21.42;;;;;;;;;;10469394;28;20039;-75
2022/11/18 07:23:37;;;;;;;152.35;20.73;;;;;;;;;;10476290;28;20056;-75
2022/11/18 07:28:38;;;;;;;66.25;19.40;;;;;;;;;;10475960;28;20028;-77
2022/11/18 07:33:39;;;;;;;89.50;22.33;;;;;;;;;;10477321;28;20021;-73
2022/11/18 07:38:40;;;;;;;87.93;19.85;;;;;;;;;;10494605;28;20039;-75
2022/11/18 07:43:40;;;;;;;122.70;22.30;;;;;;;;;;10494757;28;20036;-79
2022/11/18 07:48:42;;;;;;;129.95;22.85;;;;;;;;;;10476404;28;20522;-73
2022/11/18 07:53:42;;;;;;;54.78;19.67;;;;;;;;;;10459944;28;20028;-77
2022/11/18 07:58:43;;;;;;;62.53;16.73;;;;;;;;;;10475989;28;20021;-75
2022/11/18 08:03:45;;;;;;;60.33;18.88;;;;;;;;;;10476505;28;20025;-76
2022/11/18 08:08:45;;;;;;;56.35;18.13;;;;;;;;;;10494329;28;20554;-76
2022/11/18 08:13:46;;;;;;;52.53;18.73;;;;;;;;;;10475314;28;20025;-75
2022/11/18 08:18:46;;;;;;;50.35;18.58;;;;;;;;;;10493676;28;20028;-75
2022/11/18 08:23:51;;;;;;;71.57;23.40;;;;;;;;;;10475382;28;20048;-76
2022/11/18 08:28:52;;;;;;;72.85;22.15;;;;;;;;;;10475388;28;20039;-76
2022/11/18 08:33:58;;;;;;;67.82;21.75;;;;;;;;;;10474320;28;20028;-75
2022/11/18 08:39:00;;;;;;;67.95;22.08;;;;;;;;;;10475001;28;20082;-77
2022/11/18 08:44:00;;;;;;;68.78;22.63;;;;;;;;;;10492984;28;20052;-74
2022/11/18 08:49:00;;;;;;;43.97;17.75;;;;;;;;;;10474871;28;20025;-76
2022/11/18 08:54:02;;;;;;;53.20;22.35;;;;;;;;;;10493004;28;20032;-81
2022/11/18 08:59:03;;;;;;;55.13;19.63;;;;;;;;;;10474974;28;20028;-83
2022/11/18 09:04:03;;;;;;;35.78;15.60;;;;;;;;;;10451389;28;20029;-74
2022/11/18 09:09:03;;;;;;;64.60;23.52;;;;;;;;;;10466060;28;20052;-75
2022/11/18 09:14:04;;;;;;;54.67;21.77;;;;;;;;;;10457808;28;20025;-76
2022/11/18 09:19:04;;;;;;;56.92;21.08;;;;;;;;;;10449351;28;20090;-81
2022/11/18 09:24:05;;;;;;;48.60;21.65;;;;;;;;;;10490898;28;20520;-76
2022/11/18 09:29:05;;;;;;;76.88;25.67;;;;;;;;;;10490621;28;20487;-75
2022/11/18 09:34:09;;;;;;;78.63;29.90;;;;;;;;;;10477263;28;20027;-75
2022/11/18 09:39:09;;;;;;;82.10;27.45;;;;;;;;;;10477972;28;20040;-75
2022/11/18 09:44:12;;;;;;;82.05;30.83;;;;;;;;;;10495553;28;20094;-75
2022/11/18 09:49:19;;;;;;;73.03;27.17;;;;;;;;;;10472813;28;20143;-74
2022/11/18 09:54:21;;;;;;;68.82;28.88;;;;;;;;;;10471779;28;20028;-74
2022/11/18 09:59:22;;;;;;;63.42;24.63;;;;;;;;;;10472062;28;20028;-76
2022/11/18 10:04:26;;;;;;;49.13;22.65;;;;;;;;;;10471594;28;20047;-74
2022/11/18 10:09:39;;;;;;;49.42;19.45;;;;;;;;;;10471227;28;20032;-74
2022/11/18 10:14:52;;;;;;;51.65;22.83;;;;;;;;;;10471758;28;20028;-74
2022/11/18 10:19:59;;;;;;;36.88;18.73;;;;;;;;;;10471426;28;20040;-75
2022/11/18 10:25:00;;;;;;;47.38;20.65;;;;;;;;;;10470180;28;20044;-74
2022/11/18 10:30:01;;;;;;;56.00;25.10;;;;;;;;;;10488677;28;20024;-76
2022/11/18 10:35:01;;;;;;;56.78;22.60;;;;;;;;;;10470690;28;20384;-74
2022/11/18 10:40:03;;;;;;;56.30;21.73;;;;;;;;;;10470631;28;20029;-74
2022/11/18 10:45:14;;;;;;;51.15;21.80;;;;;;;;;;10488564;28;20033;-74
2022/11/18 10:50:29;;;;;;;51.08;22.38;;;;;;;;;;10468383;28;20496;-75
2022/11/18 10:55:29;;;;;;;60.45;24.38;;;;;;;;;;10447172;28;20094;-75
2022/11/18 11:00:59;;;;;;;51.03;23.20;;;;;;;;;;10478629;28;20024;-79
2022/11/18 11:06:12;;;;;;;62.80;24.58;;;;;;;;;;10465396;28;20123;-79
2022/11/18 11:11:24;;;;;;;70.68;30.40;;;;;;;;;;10478046;28;20090;-75
2022/11/18 11:16:25;;;;;;;75.85;26.17;;;;;;;;;;10462156;28;20107;-74
2022/11/18 11:21:29;;;;;;;63.88;25.80;;;;;;;;;;10481169;28;20123;-74
2022/11/18 11:26:48;;;;;;;67.80;25.80;;;;;;;;;;10506032;28;20028;-75
2022/11/18 11:31:57;;;;;;;75.05;28.65;;;;;;;;;;10499666;28;20087;-75
2022/11/18 11:37:12;;;;;;;70.28;27.92;;;;;;;;;;10489473;28;20034;-73
2022/11/18 11:42:13;;;;;;;74.82;27.10;;;;;;;;;;10517489;28;20051;-74
2022/11/18 11:52:38;;;;;;;67.60;24.60;;;;;;;;;;10495138;28;20028;-74
2022/11/18 11:58:01;;;;;;;58.70;24.65;;;;;;;;;;10494713;28;20029;-74
2022/11/18 12:03:08;;;;;;;47.28;20.67;;;;;;;;;;10461851;28;20056;-76
2022/11/18 12:08:09;;;;;;;57.22;22.13;;;;;;;;;;10493562;28;20353;-76
2022/11/18 12:13:15;;;;;;;41.85;19.58;;;;;;;;;;10492940;28;20506;-75
2022/11/18 12:18:23;;;;;;;41.05;18.92;;;;;;;;;;10492468;28;20024;-76
2022/11/18 12:23:31;;;;;;;48.63;19.50;;;;;;;;;;10449985;28;20118;-74
2022/11/18 12:28:36;;;;;;;41.20;17.02;;;;;;;;;;10470076;28;20043;-74
2022/11/18 12:33:53;;;;;;;36.63;16.42;;;;;;;;;;10480121;28;20051;-76
2022/11/18 12:38:54;;;;;;;36.97;16.90;;;;;;;;;;10478064;28;20032;-75
2022/11/18 12:43:55;;;;;;;43.17;18.58;;;;;;;;;;10476925;28;20039;-74
2022/11/18 12:48:55;;;;;;;42.13;16.85;;;;;;;;;;10474966;28;20067;-74
2022/11/18 12:53:56;;;;;;;33.22;16.60;;;;;;;;;;10491723;28;20067;-75
2022/11/18 12:58:58;;;;;;;42.75;17.15;;;;;;;;;;10473316;28;20032;-76
2022/11/18 13:04:30;;;;;;;32.97;14.60;;;;;;;;;;10474121;28;20081;-77
2022/11/18 13:09:32;;;;;;;30.20;14.32;;;;;;;;;;10423253;28;20056;-75
2022/11/18 13:19:59;;;;;;;29.92;13.75;;;;;;;;;;10482056;28;20052;-74
2022/11/18 13:24:59;;;;;;;31.58;12.27;;;;;;;;;;10456142;28;20140;-75
2022/11/18 13:30:01;;;;;;;18.05;7.82;;;;;;;;;;10449866;28;20021;-75
2022/11/18 13:35:16;;;;;;;22.30;9.27;;;;;;;;;;10466118;28;20095;-74
2022/11/18 13:40:27;;;;;;;24.52;9.10;;;;;;;;;;10472455;28;20032;-74
2022/11/18 13:45:28;;;;;;;3.60;1.80;;;;;;;;;;10495558;28;20035;-74
2022/11/18 13:50:34;;;;;;;2.28;1.33;;;;;;;;;;10489373;28;20021;-75
2022/11/18 13:55:44;;;;;;;2.42;1.15;;;;;;;;;;10471413;28;20032;-73
2022/11/18 14:00:59;;;;;;;2.97;1.30;;;;;;;;;;10450306;28;20024;-80
2022/11/18 14:06:01;;;;;;;3.00;1.25;;;;;;;;;;10472018;28;20048;-76
2022/11/18 14:11:02;;;;;;;1.85;1.08;;;;;;;;;;10488937;28;20052;-78
2022/11/18 14:16:22;;;;;;;4.18;1.15;;;;;;;;;;10436453;28;20064;-77
2022/11/18 14:21:37;;;;;;;1.00;0.82;;;;;;;;;;10468790;28;20059;-75
2022/11/18 14:26:37;;;;;;;0.60;0.40;;;;;;;;;;10457740;28;20074;-76
2022/11/18 14:31:40;;;;;;;1.55;1.13;;;;;;;;;;10470561;28;20487;-76
2022/11/18 14:36:42;;;;;;;2.75;1.02;;;;;;;;;;10488959;28;20090;-76
2022/11/18 14:41:45;;;;;;;6.28;1.40;;;;;;;;;;10445289;28;20102;-74
2022/11/18 14:46:56;;;;;;;3.05;1.63;;;;;;;;;;10484137;28;20103;-78
2022/11/18 14:51:56;;;;;;;2.63;1.45;;;;;;;;;;10469484;28;20012;-75
2022/11/18 14:56:58;;;;;;;2.23;0.90;;;;;;;;;;10469678;28;20028;-74
2022/11/18 15:01:59;;;;;;;2.83;0.98;;;;;;;;;;10480138;28;20297;-74
2022/11/18 15:06:59;;;;;;;2.95;0.93;;;;;;;;;;10488468;28;20135;-82
2022/11/18 15:11:59;;;;;;;2.00;0.93;;;;;;;;;;10629381;22;20048;-75
2022/11/18 15:17:00;;;;;;;3.10;1.05;;;;;;;;;;10511304;28;20036;-75
2022/11/18 15:22:01;;;;;;;5.47;2.03;;;;;;;;;;10495357;28;20020;-78
2022/11/18 15:27:04;;;;;;;2.67;1.27;;;;;;;;;;10517594;28;20027;-75
2022/11/18 15:32:05;;;;;;;8.35;2.55;;;;;;;;;;10496160;28;20016;-76
2022/11/18 15:37:08;;;;;;;5.50;1.48;;;;;;;;;;10517175;28;20107;-76
2022/11/18 15:42:10;;;;;;;4.70;2.45;;;;;;;;;;10525613;28;20020;-74
2022/11/18 15:47:11;;;;;;;3.90;1.92;;;;;;;;;;10511165;28;20347;-72
2022/11/18 15:52:12;;;;;;;3.17;1.70;;;;;;;;;;10522202;28;20036;-72
2022/11/18 15:57:12;;;;;;;4.45;1.98;;;;;;;;;;10509933;28;20024;-74
2022/11/18 16:02:13;;;;;;;3.38;1.50;;;;;;;;;;10516755;28;20024;-74
2022/11/18 16:07:13;;;;;;;5.32;1.80;;;;;;;;;;10518322;28;20148;-73
2022/11/18 16:17:33;;;;;;;6.07;1.85;;;;;;;;;;10508367;28;20123;-73
2022/11/18 16:22:34;;;;;;;7.30;3.72;;;;;;;;;;10491649;28;20546;-75
2022/11/18 16:27:35;;;;;;;5.40;3.25;;;;;;;;;;10509693;28;20036;-76
2022/11/18 16:32:35;;;;;;;4.57;2.83;;;;;;;;;;10492582;28;20024;-74
2022/11/18 16:37:35;;;;;;;7.97;2.95;;;;;;;;;;10478201;28;20500;-73
2022/11/18 16:42:35;;;;;;;11.95;5.25;;;;;;;;;;10508225;28;20027;-73
2022/11/18 16:47:37;;;;;;;8.40;4.60;;;;;;;;;;10499858;28;20408;-74
2022/11/18 16:52:37;;;;;;;9.85;4.82;;;;;;;;;;10489862;28;20316;-78
2022/11/18 16:57:38;;;;;;;10.67;5.73;;;;;;;;;;10481537;28;20063;-76
2022/11/18 17:02:38;;;;;;;10.23;4.60;;;;;;;;;;10492730;28;20119;-74
2022/11/18 17:07:38;;;;;;;4.13;2.25;;;;;;;;;;10491760;28;20051;-71
2022/11/18 17:12:38;;;;;;;9.00;4.05;;;;;;;;;;10511171;28;20117;-72
2022/11/18 17:17:39;;;;;;;2.83;1.90;;;;;;;;;;10496256;28;20067;-72
2022/11/18 17:22:39;;;;;;;3.20;1.30;;;;;;;;;;10480510;28;20032;-72
2022/11/18 17:27:39;;;;;;;2.63;1.80;;;;;;;;;;10486117;28;20052;-74
2022/11/18 17:32:40;;;;;;;9.07;3.10;;;;;;;;;;10483475;28;20027;-73
2022/11/18 17:37:43;;;;;;;4.32;2.08;;;;;;;;;;10491452;28;20027;-76
2022/11/18 17:42:43;;;;;;;5.88;2.15;;;;;;;;;;10490728;28;20024;-74
2022/11/18 17:47:43;;;;;;;6.43;2.50;;;;;;;;;;10501404;28;20471;-75
2022/11/18 17:52:44;;;;;;;3.60;2.40;;;;;;;;;;10481589;28;20039;-74
2022/11/18 17:57:44;;;;;;;8.45;3.00;;;;;;;;;;10482107;28;20028;-72
2022/11/18 18:02:44;;;;;;;5.75;2.38;;;;;;;;;;10485449;28;20020;-73
2022/11/18 18:07:47;;;;;;;5.75;2.65;;;;;;;;;;10490729;28;20016;-75
2022/11/18 18:18:06;;;;;;;6.53;2.63;;;;;;;;;;10532805;28;20052;-70
2022/11/18 18:23:06;;;;;;;4.78;2.58;;;;;;;;;;10498101;28;20016;-74
2022/11/18 18:28:06;;;;;;;15.60;4.25;;;;;;;;;;10492722;28;20480;-73
2022/11/18 18:33:07;;;;;;;8.15;2.65;;;;;;;;;;10495296;28;20050;-71
2022/11/18 18:38:07;;;;;;;5.95;1.98;;;;;;;;;;10492037;28;20452;-78
2022/11/18 18:43:11;;;;;;;9.00;2.17;;;;;;;;;;10490920;28;20059;-78
2022/11/18 18:48:11;;;;;;;4.78;2.08;;;;;;;;;;10485056;28;20111;-74
2022/11/18 18:53:11;;;;;;;5.65;2.00;;;;;;;;;;10513053;28;20020;-74
2022/11/18 18:58:13;;;;;;;4.88;2.35;;;;;;;;;;10502653;28;20032;-79
2022/11/18 19:03:16;;;;;;;4.43;2.08;;;;;;;;;;10498041;28;20484;-72
2022/11/18 19:08:17;;;;;;;5.70;1.40;;;;;;;;;;10488529;28;20443;-75
2022/11/18 19:13:18;;;;;;;5.53;1.60;;;;;;;;;;10470110;28;20054;-77
2022/11/18 19:18:22;;;;;;;4.20;1.80;;;;;;;;;;10488514;28;20028;-74
2022/11/18 19:23:24;;;;;;;1.88;1.15;;;;;;;;;;10496703;28;20090;-73
2022/11/18 19:28:24;;;;;;;6.13;2.15;;;;;;;;;;10481133;28;20028;-74
2022/11/18 19:33:24;;;;;;;9.30;2.85;;;;;;;;;;10495634;28;20028;-73
2022/11/18 19:38:24;;;;;;;3.30;1.80;;;;;;;;;;10495540;28;20126;-73
2022/11/18 19:43:26;;;;;;;7.90;2.80;;;;;;;;;;10491125;28;20028;-73
2022/11/18 19:48:26;;;;;;;2.92;1.90;;;;;;;;;;10485862;28;20013;-75
2022/11/18 19:53:33;;;;;;;3.28;1.13;;;;;;;;;;10506572;28;20025;-74
2022/11/18 19:58:35;;;;;;;1.43;1.00;;;;;;;;;;10490126;28;20082;-74
2022/11/18 20:03:35;;;;;;;1.67;0.95;;;;;;;;;;10492655;28;20020;-74
2022/11/18 20:08:37;;;;;;;4.78;1.42;;;;;;;;;;10493818;28;20082;-73
2022/11/18 20:13:38;;;;;;;1.95;1.25;;;;;;;;;;10513697;28;20075;-75
2022/11/18 20:18:41;;;;;;;2.00;1.23;;;;;;;;;;10510073;28;20029;-72
2022/11/18 20:23:41;;;;;;;5.82;2.63;;;;;;;;;;10496612;28;20100;-74
2022/11/18 20:28:42;;;;;;;10.15;3.67;;;;;;;;;;10499683;28;20024;-75
2022/11/18 20:33:47;;;;;;;15.57;5.40;;;;;;;;;;10494749;28;20024;-74
2022/11/18 20:38:49;;;;;;;13.45;7.18;;;;;;;;;;10513250;28;20046;-73
2022/11/18 20:43:51;;;;;;;7.93;4.97;;;;;;;;;;10499468;28;20028;-72
2022/11/18 20:48:51;;;;;;;13.38;6.90;;;;;;;;;;10488339;28;20138;-74
2022/11/18 20:53:52;;;;;;;8.40;4.18;;;;;;;;;;10508108;28;20535;-73
2022/11/18 20:58:54;;;;;;;6.15;3.58;;;;;;;;;;10507965;28;20446;-72
2022/11/18 21:04:08;;;;;;;7.03;3.90;;;;;;;;;;10500512;28;20028;-72
2022/11/18 21:09:09;;;;;;;8.23;3.28;;;;;;;;;;10494156;28;20028;-74
2022/11/18 21:14:21;;;;;;;7.80;3.47;;;;;;;;;;10499957;28;20056;-72
2022/11/18 21:19:21;;;;;;;7.93;2.60;;;;;;;;;;10472926;28;20548;-72
2022/11/18 21:24:22;;;;;;;7.30;3.33;;;;;;;;;;10480030;28;20023;-73
2022/11/18 21:29:24;;;;;;;7.72;3.55;;;;;;;;;;10487287;28;20266;-76
2022/11/18 21:34:25;;;;;;;6.95;4.38;;;;;;;;;;10471682;28;20032;-76
2022/11/18 21:39:26;;;;;;;10.70;4.33;;;;;;;;;;10509972;28;20020;-75
2022/11/18 21:44:27;;;;;;;10.40;5.45;;;;;;;;;;10526064;28;20258;-73
2022/11/18 21:49:27;;;;;;;9.00;5.00;;;;;;;;;;10496598;28;20114;-76
2022/11/18 21:54:27;;;;;;;8.80;5.38;;;;;;;;;;10499540;28;20031;-74
2022/11/18 21:59:27;;;;;;;8.95;4.75;;;;;;;;;;10519450;28;20028;-74
2022/11/18 22:09:47;;;;;;;6.22;3.78;;;;;;;;;;10524984;28;20061;-76
2022/11/18 22:14:47;;;;;;;7.68;3.65;;;;;;;;;;10505528;28;20558;-74
2022/11/18 22:19:47;;;;;;;6.65;3.50;;;;;;;;;;10525249;28;20032;-74
2022/11/18 22:24:47;;;;;;;6.35;3.38;;;;;;;;;;10506527;28;20093;-74
2022/11/18 22:29:48;;;;;;;4.50;2.60;;;;;;;;;;10495637;28;20479;-72
2022/11/18 22:34:48;;;;;;;5.38;2.60;;;;;;;;;;10525962;28;20035;-74
2022/11/18 22:39:50;;;;;;;8.38;2.78;;;;;;;;;;10513162;28;20058;-78
2022/11/18 22:44:50;;;;;;;6.25;2.92;;;;;;;;;;10498013;28;20032;-79
2022/11/18 22:49:51;;;;;;;5.47;3.43;;;;;;;;;;10488810;28;20028;-75
2022/11/18 22:54:51;;;;;;;7.45;2.92;;;;;;;;;;10508726;28;20864;-74
2022/11/18 22:59:53;;;;;;;8.88;4.82;;;;;;;;;;10508739;28;20487;-77
2022/11/18 23:04:54;;;;;;;10.07;4.80;;;;;;;;;;10508648;28;20027;-76
2022/11/18 23:09:54;;;;;;;11.33;5.27;;;;;;;;;;10512461;28;20407;-73
2022/11/18 23:14:54;;;;;;;10.65;5.55;;;;;;;;;;10484452;28;20605;-74
2022/11/18 23:19:55;;;;;;;8.88;5.90;;;;;;;;;;10497647;28;20024;-76
2022/11/18 23:24:56;;;;;;;8.88;5.13;;;;;;;;;;10502206;28;20035;-75
2022/11/18 23:29:56;;;;;;;8.70;3.92;;;;;;;;;;10522385;28;20380;-77
2022/11/18 23:34:57;;;;;;;8.35;4.78;;;;;;;;;;10515751;28;20036;-74
2022/11/18 23:39:57;;;;;;;13.90;5.28;;;;;;;;;;10514977;28;20028;-74
2022/11/18 23:44:57;;;;;;;4.97;3.10;;;;;;;;;;10513433;28;20025;-74
2022/11/18 23:49:59;;;;;;;6.30;2.42;;;;;;;;;;10510227;28;20036;-73
2022/11/18 23:55:00;;;;;;;5.75;1.42;;;;;;;;;;10508210;28;20059;-78
